createdAt,value
2024-05-09T00:00:59.024Z,1020.76
2024-05-09T00:01:59.031Z,1020.77
2024-05-09T00:02:59.087Z,1020.74
2024-05-09T00:03:59.055Z,1020.72
2024-05-09T00:04:59.069Z,1020.72
2024-05-09T00:05:59.075Z,1020.70
2024-05-09T00:06:58.942Z,1020.72
2024-05-09T00:07:59.014Z,1020.70
2024-05-09T00:08:58.920Z,1020.71
2024-05-09T00:09:58.899Z,1020.68
2024-05-09T00:10:58.977Z,1020.63
2024-05-09T00:11:59.050Z,1020.66
2024-05-09T00:12:58.869Z,1020.61
2024-05-09T00:13:58.916Z,1020.66
2024-05-09T00:14:58.845Z,1020.67
2024-05-09T00:15:58.837Z,1020.66
2024-05-09T00:16:58.851Z,1020.68
2024-05-09T00:17:59.031Z,1020.68
2024-05-09T00:18:58.943Z,1020.69
2024-05-09T00:19:58.811Z,1020.69
2024-05-09T00:20:58.824Z,1020.68
2024-05-09T00:21:58.771Z,1020.69
2024-05-09T00:22:58.861Z,1020.64
2024-05-09T00:23:58.747Z,1020.66
2024-05-09T00:24:58.754Z,1020.65
2024-05-09T00:25:58.804Z,1020.67
2024-05-09T00:26:58.731Z,1020.63
2024-05-09T00:27:58.704Z,1020.62
2024-05-09T00:28:58.715Z,1020.61
2024-05-09T00:29:58.706Z,1020.66
2024-05-09T00:30:58.672Z,1020.66
2024-05-09T00:31:58.733Z,1020.66
2024-05-09T00:32:58.826Z,1020.68
2024-05-09T00:33:58.718Z,1020.68
2024-05-09T00:34:58.652Z,1020.67
2024-05-09T00:35:58.644Z,1020.68
2024-05-09T00:36:58.606Z,1020.69
2024-05-09T00:37:58.646Z,1020.66
2024-05-09T00:38:58.581Z,1020.70
2024-05-09T00:39:58.586Z,1020.69
2024-05-09T00:40:58.604Z,1020.67
2024-05-09T00:41:58.561Z,1020.66
2024-05-09T00:42:58.542Z,1020.66
2024-05-09T00:43:58.571Z,1020.61
2024-05-09T00:44:58.534Z,1020.62
2024-05-09T00:45:58.512Z,1020.59
2024-05-09T00:46:58.556Z,1020.62
2024-05-09T00:47:58.694Z,1020.64
2024-05-09T00:48:58.575Z,1020.61
2024-05-09T00:49:58.514Z,1020.61
2024-05-09T00:50:58.492Z,1020.60
2024-05-09T00:51:58.471Z,1020.59
2024-05-09T00:52:58.464Z,1020.58
2024-05-09T00:53:58.421Z,1020.60
2024-05-09T00:54:58.410Z,1020.59
2024-05-09T00:55:58.443Z,1020.61
2024-05-09T00:56:58.413Z,1020.60
2024-05-09T00:57:58.368Z,1020.61
2024-05-09T00:58:58.478Z,1020.62
2024-05-09T00:59:58.363Z,1020.59
2024-05-09T01:00:58.367Z,1020.63
2024-05-09T01:01:58.377Z,1020.64
2024-05-09T01:02:58.514Z,1020.60
2024-05-09T01:03:58.413Z,1020.62
2024-05-09T01:04:58.432Z,1020.63
2024-05-09T01:05:59.274Z,1020.63
2024-05-09T01:06:58.290Z,1020.64
2024-05-09T01:07:58.293Z,1020.65
2024-05-09T01:08:58.263Z,1020.65
2024-05-09T01:09:58.247Z,1020.71
2024-05-09T01:10:58.326Z,1020.63
2024-05-09T01:11:58.345Z,1020.64
2024-05-09T01:12:58.204Z,1020.68
2024-05-09T01:13:58.286Z,1020.68
2024-05-09T01:14:58.217Z,1020.68
2024-05-09T01:15:58.190Z,1020.68
2024-05-09T01:16:58.178Z,1020.69
2024-05-09T01:17:58.479Z,1020.68
2024-05-09T01:18:58.196Z,1020.69
2024-05-09T01:19:58.182Z,1020.69
2024-05-09T01:20:58.190Z,1020.67
2024-05-09T01:21:58.113Z,1020.70
2024-05-09T01:22:58.185Z,1020.71
2024-05-09T01:23:58.130Z,1020.72
2024-05-09T01:24:58.078Z,1020.72
2024-05-09T01:25:58.094Z,1020.68
2024-05-09T01:26:58.048Z,1020.70
2024-05-09T01:27:58.048Z,1020.71
2024-05-09T01:28:58.066Z,1020.68
2024-05-09T01:29:58.041Z,1020.71
2024-05-09T01:30:58.032Z,1020.71
2024-05-09T01:31:58.123Z,1020.71
2024-05-09T01:32:58.130Z,1020.74
2024-05-09T01:33:58.128Z,1020.68
2024-05-09T01:34:58.031Z,1020.67
2024-05-09T01:35:57.953Z,1020.68
2024-05-09T01:36:57.950Z,1020.68
2024-05-09T01:37:57.977Z,1020.65
2024-05-09T01:38:57.917Z,1020.67
2024-05-09T01:39:57.947Z,1020.66
2024-05-09T01:40:58.056Z,1020.67
2024-05-09T01:41:57.892Z,1020.66
2024-05-09T01:42:57.878Z,1020.65
2024-05-09T01:43:57.908Z,1020.65
2024-05-09T01:44:57.852Z,1020.58
2024-05-09T01:45:57.865Z,1020.59
2024-05-09T01:46:57.868Z,1020.54
2024-05-09T01:47:58.131Z,1020.55
2024-05-09T01:48:58.845Z,1020.57
2024-05-09T01:49:57.878Z,1020.57
2024-05-09T01:50:57.915Z,1020.58
2024-05-09T01:51:57.802Z,1020.60
2024-05-09T01:52:57.808Z,1020.65
2024-05-09T01:53:57.759Z,1020.61
2024-05-09T01:54:57.752Z,1020.63
2024-05-09T01:55:57.766Z,1020.65
2024-05-09T01:56:57.723Z,1020.64
2024-05-09T01:57:57.714Z,1020.62
2024-05-09T01:58:57.788Z,1020.62
2024-05-09T01:59:57.692Z,1020.63
2024-05-09T02:00:57.721Z,1020.64
2024-05-09T02:01:58.102Z,1020.64
2024-05-09T02:02:57.898Z,1020.65
2024-05-09T02:03:57.804Z,1020.65
2024-05-09T02:04:57.827Z,1020.62
2024-05-09T02:05:57.713Z,1020.64
2024-05-09T02:06:57.615Z,1020.63
2024-05-09T02:07:57.622Z,1020.61
2024-05-09T02:08:58.277Z,1020.63
2024-05-09T02:09:57.579Z,1020.63
2024-05-09T02:10:57.693Z,1020.67
2024-05-09T02:11:57.652Z,1020.61
2024-05-09T02:12:57.544Z,1020.60
2024-05-09T02:13:57.659Z,1020.63
2024-05-09T02:14:57.519Z,1020.61
2024-05-09T02:15:57.523Z,1020.65
2024-05-09T02:16:57.533Z,1020.66
2024-05-09T02:17:57.697Z,1020.65
2024-05-09T02:18:58.426Z,1020.65
2024-05-09T02:19:57.627Z,1020.66
2024-05-09T02:20:57.513Z,1020.63
2024-05-09T02:21:58.265Z,1020.62
2024-05-09T02:22:57.547Z,1020.65
2024-05-09T02:23:57.421Z,1020.63
2024-05-09T02:24:57.429Z,1020.64
2024-05-09T02:25:57.462Z,1020.60
2024-05-09T02:26:57.388Z,1020.61
2024-05-09T02:27:57.400Z,1020.62
2024-05-09T02:28:57.414Z,1020.57
2024-05-09T02:29:57.377Z,1020.56
2024-05-09T02:30:57.360Z,1020.56
2024-05-09T02:31:57.400Z,1020.51
2024-05-09T02:32:58.606Z,1020.53
2024-05-09T02:33:57.412Z,1020.56
2024-05-09T02:34:57.345Z,1020.56
2024-05-09T02:35:57.319Z,1020.53
2024-05-09T02:36:57.283Z,1020.52
2024-05-09T02:37:57.320Z,1020.51
2024-05-09T02:38:57.259Z,1020.52
2024-05-09T02:39:57.247Z,1020.51
2024-05-09T02:40:58.261Z,1020.51
2024-05-09T02:41:57.232Z,1020.53
2024-05-09T02:42:57.219Z,1020.51
2024-05-09T02:43:57.284Z,1020.51
2024-05-09T02:44:57.191Z,1020.47
2024-05-09T02:45:57.190Z,1020.44
2024-05-09T02:46:57.220Z,1020.50
2024-05-09T02:47:57.425Z,1020.48
2024-05-09T02:48:57.219Z,1020.44
2024-05-09T02:49:57.210Z,1020.47
2024-05-09T02:50:57.256Z,1020.51
2024-05-09T02:51:57.122Z,1020.48
2024-05-09T02:52:57.135Z,1020.47
2024-05-09T02:53:57.093Z,1020.47
2024-05-09T02:54:57.090Z,1020.46
2024-05-09T02:55:57.158Z,1020.43
2024-05-09T02:56:57.062Z,1020.44
2024-05-09T02:57:57.060Z,1020.46
2024-05-09T02:58:57.054Z,1020.46
2024-05-09T02:59:57.056Z,1020.46
2024-05-09T03:00:57.031Z,1020.49
2024-05-09T03:01:57.104Z,1020.46
2024-05-09T03:02:57.148Z,1020.46
2024-05-09T03:03:57.134Z,1020.48
2024-05-09T03:04:57.027Z,1020.44
2024-05-09T03:05:56.966Z,1020.47
2024-05-09T03:06:56.963Z,1020.45
2024-05-09T03:07:57.002Z,1020.42
2024-05-09T03:08:56.925Z,1020.43
2024-05-09T03:09:57.492Z,1020.43
2024-05-09T03:10:56.931Z,1020.45
2024-05-09T03:11:57.054Z,1020.47
2024-05-09T03:12:56.885Z,1020.46
2024-05-09T03:13:56.915Z,1020.45
2024-05-09T03:14:56.861Z,1020.50
2024-05-09T03:15:56.855Z,1020.48
2024-05-09T03:16:56.908Z,1020.47
2024-05-09T03:17:57.065Z,1020.51
2024-05-09T03:18:56.878Z,1020.51
2024-05-09T03:19:56.799Z,1020.51
2024-05-09T03:20:56.841Z,1020.48
2024-05-09T03:21:56.786Z,1020.51
2024-05-09T03:22:57.146Z,1020.48
2024-05-09T03:23:56.774Z,1020.52
2024-05-09T03:24:56.743Z,1020.49
2024-05-09T03:25:56.767Z,1020.48
2024-05-09T03:26:56.737Z,1020.49
2024-05-09T03:27:56.819Z,1020.50
2024-05-09T03:28:56.746Z,1020.52
2024-05-09T03:29:56.754Z,1020.52
2024-05-09T03:30:56.679Z,1020.51
2024-05-09T03:31:56.810Z,1020.53
2024-05-09T03:32:56.773Z,1020.55
2024-05-09T03:33:56.838Z,1020.56
2024-05-09T03:34:56.689Z,1020.53
2024-05-09T03:35:56.633Z,1020.54
2024-05-09T03:36:56.607Z,1020.56
2024-05-09T03:37:56.647Z,1020.55
2024-05-09T03:38:56.600Z,1020.52
2024-05-09T03:39:56.583Z,1020.54
2024-05-09T03:40:56.586Z,1020.52
2024-05-09T03:41:56.558Z,1020.54
2024-05-09T03:42:56.542Z,1020.56
2024-05-09T03:43:56.609Z,1020.56
2024-05-09T03:44:56.517Z,1020.55
2024-05-09T03:45:56.512Z,1020.58
2024-05-09T03:46:56.509Z,1020.57
2024-05-09T03:47:56.870Z,1020.58
2024-05-09T03:48:56.554Z,1020.57
2024-05-09T03:49:56.538Z,1020.58
2024-05-09T03:50:56.501Z,1020.59
2024-05-09T03:51:56.451Z,1020.58
2024-05-09T03:52:56.478Z,1020.57
2024-05-09T03:53:56.426Z,1020.54
2024-05-09T03:54:56.431Z,1020.56
2024-05-09T03:55:56.439Z,1020.56
2024-05-09T03:56:56.382Z,1020.57
2024-05-09T03:57:56.397Z,1020.57
2024-05-09T03:58:56.398Z,1020.57
2024-05-09T03:59:56.355Z,1020.62
2024-05-09T04:00:56.382Z,1020.58
2024-05-09T04:01:56.573Z,1020.57
2024-05-09T04:02:56.391Z,1020.59
2024-05-09T04:03:56.373Z,1020.58
2024-05-09T04:04:56.317Z,1020.57
2024-05-09T04:05:56.325Z,1020.57
2024-05-09T04:06:56.287Z,1020.60
2024-05-09T04:07:56.353Z,1020.61
2024-05-09T04:08:56.260Z,1020.56
2024-05-09T04:09:56.244Z,1020.57
2024-05-09T04:10:56.302Z,1020.59
2024-05-09T04:11:56.341Z,1020.60
2024-05-09T04:12:56.206Z,1020.61
2024-05-09T04:13:56.233Z,1020.61
2024-05-09T04:14:56.190Z,1020.63
2024-05-09T04:15:56.212Z,1020.63
2024-05-09T04:16:56.212Z,1020.61
2024-05-09T04:17:56.650Z,1020.66
2024-05-09T04:18:56.234Z,1020.63
2024-05-09T04:19:56.164Z,1020.62
2024-05-09T04:20:56.193Z,1020.66
2024-05-09T04:21:56.130Z,1020.65
2024-05-09T04:22:56.155Z,1020.64
2024-05-09T04:23:56.091Z,1020.65
2024-05-09T04:24:57.004Z,1020.69
2024-05-09T04:25:56.127Z,1020.64
2024-05-09T04:26:56.056Z,1020.65
2024-05-09T04:27:56.056Z,1020.61
2024-05-09T04:28:56.061Z,1020.67
2024-05-09T04:29:56.019Z,1020.65
2024-05-09T04:30:56.037Z,1020.66
2024-05-09T04:31:56.143Z,1020.63
2024-05-09T04:32:56.099Z,1020.63
2024-05-09T04:33:56.137Z,1020.68
2024-05-09T04:34:56.012Z,1020.67
2024-05-09T04:35:55.975Z,1020.68
2024-05-09T04:36:55.952Z,1020.69
2024-05-09T04:37:56.010Z,1020.72
2024-05-09T04:38:55.934Z,1020.68
2024-05-09T04:39:55.938Z,1020.69
2024-05-09T04:40:55.940Z,1020.66
2024-05-09T04:41:55.888Z,1020.70
2024-05-09T04:42:55.875Z,1020.67
2024-05-09T04:43:55.922Z,1020.66
2024-05-09T04:44:58.627Z,1020.68
2024-05-09T04:45:55.852Z,1020.64
2024-05-09T04:46:55.868Z,1020.64
2024-05-09T04:47:55.999Z,1020.66
2024-05-09T04:48:55.881Z,1020.64
2024-05-09T04:49:55.842Z,1020.61
2024-05-09T04:50:55.822Z,1020.63
2024-05-09T04:51:55.778Z,1020.61
2024-05-09T04:52:55.802Z,1020.64
2024-05-09T04:53:55.777Z,1020.68
2024-05-09T04:54:58.416Z,1020.68
2024-05-09T04:55:55.795Z,1020.67
2024-05-09T04:56:55.717Z,1020.73
2024-05-09T04:57:55.712Z,1020.73
2024-05-09T04:58:56.210Z,1020.73
2024-05-09T04:59:55.678Z,1020.72
2024-05-09T05:00:55.714Z,1020.73
2024-05-09T05:01:55.767Z,1020.74
2024-05-09T05:02:55.820Z,1020.75
2024-05-09T05:03:56.251Z,1020.76
2024-05-09T05:04:55.709Z,1020.76
2024-05-09T05:05:55.853Z,1020.77
2024-05-09T05:06:57.721Z,1020.74
2024-05-09T05:07:55.638Z,1020.76
2024-05-09T05:08:55.591Z,1020.80
2024-05-09T05:09:55.577Z,1020.79
2024-05-09T05:10:55.743Z,1020.77
2024-05-09T05:11:55.795Z,1020.84
2024-05-09T05:12:55.546Z,1020.81
2024-05-09T05:13:55.610Z,1020.78
2024-05-09T05:14:55.522Z,1020.79
2024-05-09T05:15:56.249Z,1020.77
2024-05-09T05:16:56.337Z,1020.80
2024-05-09T05:17:55.715Z,1020.81
2024-05-09T05:18:55.628Z,1020.81
2024-05-09T05:19:55.579Z,1020.83
2024-05-09T05:20:55.544Z,1020.79
2024-05-09T05:21:55.433Z,1020.78
2024-05-09T05:22:55.453Z,1020.79
2024-05-09T05:23:55.439Z,1020.81
2024-05-09T05:24:55.434Z,1020.81
2024-05-09T05:25:56.435Z,1020.82
2024-05-09T05:26:55.388Z,1020.85
2024-05-09T05:27:55.388Z,1020.86
2024-05-09T05:28:56.169Z,1020.86
2024-05-09T05:29:55.353Z,1020.85
2024-05-09T05:30:55.358Z,1020.85
2024-05-09T05:31:56.419Z,1020.84
2024-05-09T05:32:55.694Z,1020.87
2024-05-09T05:33:55.361Z,1020.85
2024-05-09T05:34:55.379Z,1020.88
2024-05-09T05:35:55.279Z,1020.88
2024-05-09T05:36:55.276Z,1020.91
2024-05-09T05:37:55.317Z,1020.87
2024-05-09T05:38:55.334Z,1020.86
2024-05-09T05:39:55.235Z,1020.84
2024-05-09T05:40:55.410Z,1020.87
2024-05-09T05:41:55.221Z,1020.88
2024-05-09T05:42:55.206Z,1020.87
2024-05-09T05:43:55.220Z,1020.87
2024-05-09T05:44:55.214Z,1020.86
2024-05-09T05:45:55.187Z,1020.88
2024-05-09T05:46:55.212Z,1020.84
2024-05-09T05:47:55.436Z,1020.85
2024-05-09T05:48:55.237Z,1020.85
2024-05-09T05:49:55.148Z,1020.83
2024-05-09T05:50:55.184Z,1020.86
2024-05-09T05:51:55.103Z,1020.83
2024-05-09T05:52:55.793Z,1020.88
2024-05-09T05:53:55.078Z,1020.88
2024-05-09T05:54:55.076Z,1020.87
2024-05-09T05:55:55.168Z,1020.89
2024-05-09T05:56:55.062Z,1020.88
2024-05-09T05:57:55.045Z,1020.88
2024-05-09T05:58:55.073Z,1020.86
2024-05-09T05:59:55.025Z,1020.84
2024-05-09T06:00:55.228Z,1020.87
2024-05-09T06:01:55.084Z,1020.84
2024-05-09T06:02:55.118Z,1020.87
2024-05-09T06:03:56.363Z,1020.84
2024-05-09T06:04:55.148Z,1020.83
2024-05-09T06:05:54.988Z,1020.83
2024-05-09T06:06:54.965Z,1020.80
2024-05-09T06:07:54.980Z,1020.80
2024-05-09T06:08:54.948Z,1020.80
2024-05-09T06:09:54.922Z,1020.80
2024-05-09T06:10:54.979Z,1020.80
2024-05-09T06:11:54.960Z,1020.83
2024-05-09T06:12:54.890Z,1020.83
2024-05-09T06:13:54.911Z,1020.80
2024-05-09T06:14:54.851Z,1020.81
2024-05-09T06:15:54.850Z,1020.80
2024-05-09T06:16:58.113Z,1020.81
2024-05-09T06:17:55.043Z,1020.79
2024-05-09T06:18:54.959Z,1020.82
2024-05-09T06:19:54.930Z,1020.82
2024-05-09T06:20:54.867Z,1020.83
2024-05-09T06:21:54.801Z,1020.82
2024-05-09T06:22:54.793Z,1020.82
2024-05-09T06:23:54.763Z,1020.79
2024-05-09T06:24:54.748Z,1020.84
2024-05-09T06:25:55.397Z,1020.80
2024-05-09T06:26:54.722Z,1020.74
2024-05-09T06:27:54.706Z,1020.74
2024-05-09T06:28:54.740Z,1020.77
2024-05-09T06:29:54.729Z,1020.73
2024-05-09T06:30:54.680Z,1020.76
2024-05-09T06:31:57.193Z,1020.78
2024-05-09T06:32:54.850Z,1020.82
2024-05-09T06:33:54.797Z,1020.79
2024-05-09T06:34:54.652Z,1020.79
2024-05-09T06:35:54.635Z,1020.79
2024-05-09T06:36:55.327Z,1020.78
2024-05-09T06:37:54.613Z,1020.79
2024-05-09T06:38:54.607Z,1020.79
2024-05-09T06:39:54.579Z,1020.82
2024-05-09T06:40:54.603Z,1020.78
2024-05-09T06:41:54.559Z,1020.74
2024-05-09T06:42:54.541Z,1020.74
2024-05-09T06:43:54.598Z,1020.77
2024-05-09T06:44:54.538Z,1020.75
2024-05-09T06:45:54.504Z,1020.73
2024-05-09T06:46:57.077Z,1020.74
2024-05-09T06:47:54.664Z,1020.77
2024-05-09T06:48:54.687Z,1020.73
2024-05-09T06:49:54.758Z,1020.68
2024-05-09T06:50:54.478Z,1020.69
2024-05-09T06:51:54.450Z,1020.71
2024-05-09T06:52:54.494Z,1020.69
2024-05-09T06:53:54.428Z,1020.73
2024-05-09T06:54:54.427Z,1020.69
2024-05-09T06:55:54.435Z,1020.71
2024-05-09T06:56:54.385Z,1020.64
2024-05-09T06:57:54.380Z,1020.65
2024-05-09T06:58:54.442Z,1020.67
2024-05-09T06:59:54.383Z,1020.66
2024-05-09T07:00:54.375Z,1020.67
2024-05-09T07:01:54.353Z,1020.67
2024-05-09T07:02:54.377Z,1020.65
2024-05-09T07:03:54.417Z,1020.67
2024-05-09T07:04:54.691Z,1020.66
2024-05-09T07:05:55.378Z,1020.60
2024-05-09T07:06:54.287Z,1020.65
2024-05-09T07:07:54.342Z,1020.63
2024-05-09T07:08:54.334Z,1020.62
2024-05-09T07:09:54.275Z,1020.62
2024-05-09T07:10:54.280Z,1020.61
2024-05-09T07:11:54.284Z,1020.62
2024-05-09T07:12:54.219Z,1020.65
2024-05-09T07:13:54.263Z,1020.62
2024-05-09T07:14:54.199Z,1020.62
2024-05-09T07:15:54.223Z,1020.61
2024-05-09T07:16:54.347Z,1020.64
2024-05-09T07:17:54.385Z,1020.65
2024-05-09T07:18:54.337Z,1020.63
2024-05-09T07:19:54.229Z,1020.61
2024-05-09T07:20:54.170Z,1020.62
2024-05-09T07:21:54.110Z,1020.61
2024-05-09T07:22:54.171Z,1020.57
2024-05-09T07:23:54.127Z,1020.61
2024-05-09T07:24:54.103Z,1020.63
2024-05-09T07:25:54.201Z,1020.62
2024-05-09T07:26:54.069Z,1020.59
2024-05-09T07:27:54.076Z,1020.64
2024-05-09T07:28:54.109Z,1020.60
2024-05-09T07:29:54.028Z,1020.64
2024-05-09T07:30:54.036Z,1020.64
2024-05-09T07:31:54.045Z,1020.64
2024-05-09T07:32:54.229Z,1020.68
2024-05-09T07:33:54.940Z,1020.66
2024-05-09T07:34:54.066Z,1020.62
2024-05-09T07:35:53.993Z,1020.59
2024-05-09T07:36:53.951Z,1020.63
2024-05-09T07:37:54.023Z,1020.64
2024-05-09T07:38:53.926Z,1020.61
2024-05-09T07:39:53.924Z,1020.64
2024-05-09T07:40:53.923Z,1020.64
2024-05-09T07:41:53.902Z,1020.65
2024-05-09T07:42:53.898Z,1020.65
2024-05-09T07:43:53.985Z,1020.66
2024-05-09T07:44:53.896Z,1020.61
2024-05-09T07:45:56.033Z,1020.65
2024-05-09T07:48:13.737Z,1020.64
2024-05-09T07:51:32.663Z,1020.55
2024-05-09T07:53:37.750Z,1020.58
2024-05-09T07:53:51.963Z,1020.57
2024-05-09T07:54:25.024Z,1020.56
2024-05-09T07:55:24.882Z,1020.58
2024-05-09T07:56:25.883Z,1020.57
2024-05-09T07:57:24.738Z,1020.61
2024-05-09T07:58:24.762Z,1020.57
2024-05-09T07:59:24.664Z,1020.58
2024-05-09T08:00:31.067Z,1020.61
2024-05-09T08:01:24.805Z,1020.55
2024-05-09T08:02:24.754Z,1020.63
2024-05-09T08:03:24.743Z,1020.62
2024-05-09T08:04:26.562Z,1020.60
2024-05-09T08:05:24.693Z,1020.62
2024-05-09T08:06:24.695Z,1020.59
2024-05-09T08:07:24.621Z,1020.58
2024-05-09T08:08:25.386Z,1020.55
2024-05-09T08:09:24.544Z,1020.57
2024-05-09T08:10:28.582Z,1020.53
2024-05-09T08:11:24.634Z,1020.47
2024-05-09T08:12:24.530Z,1020.49
2024-05-09T08:13:24.546Z,1020.47
2024-05-09T08:14:24.533Z,1020.47
2024-05-09T08:15:24.486Z,1020.51
2024-05-09T08:16:24.587Z,1020.53
2024-05-09T08:17:24.504Z,1020.52
2024-05-09T08:18:24.651Z,1020.55
2024-05-09T08:19:24.523Z,1020.51
2024-05-09T08:20:31.004Z,1020.52
2024-05-09T08:21:24.428Z,1020.52
2024-05-09T08:22:24.406Z,1020.54
2024-05-09T08:23:24.406Z,1020.54
2024-05-09T08:24:24.389Z,1020.53
2024-05-09T08:25:24.418Z,1020.48
2024-05-09T08:26:24.341Z,1020.50
2024-05-09T08:27:24.336Z,1020.53
2024-05-09T08:28:24.412Z,1020.55
2024-05-09T08:29:24.314Z,1020.52
2024-05-09T08:30:32.510Z,1020.52
2024-05-09T08:31:24.402Z,1020.52
2024-05-09T08:32:24.287Z,1020.51
2024-05-09T08:33:24.374Z,1020.49
2024-05-09T08:34:24.379Z,1020.52
2024-05-09T08:35:24.317Z,1020.46
2024-05-09T08:36:25.179Z,1020.53
2024-05-09T08:37:27.839Z,1020.50
2024-05-09T08:38:24.212Z,1020.48
2024-05-09T08:39:24.215Z,1020.52
2024-05-09T08:40:31.007Z,1020.53
2024-05-09T08:41:24.202Z,1020.49
2024-05-09T08:42:24.171Z,1020.46
2024-05-09T08:43:24.193Z,1020.46
2024-05-09T08:44:24.158Z,1020.46
2024-05-09T08:45:24.136Z,1020.44
2024-05-09T08:46:24.265Z,1020.47
2024-05-09T08:47:24.207Z,1020.46
2024-05-09T08:48:24.274Z,1020.46
2024-05-09T08:49:24.210Z,1020.47
2024-05-09T08:50:32.027Z,1020.47
2024-05-09T08:51:24.087Z,1020.46
2024-05-09T08:52:24.063Z,1020.49
2024-05-09T08:53:24.063Z,1020.51
2024-05-09T08:54:24.036Z,1020.51
2024-05-09T08:55:24.035Z,1020.52
2024-05-09T08:56:24.025Z,1020.49
2024-05-09T08:57:24.907Z,1020.50
2024-05-09T08:58:24.031Z,1020.46
2024-05-09T08:59:23.980Z,1020.46
2024-05-09T09:00:33.739Z,1020.39
2024-05-09T09:01:24.014Z,1020.42
2024-05-09T09:02:24.079Z,1020.45
2024-05-09T09:03:23.978Z,1020.44
2024-05-09T09:04:24.084Z,1020.43
2024-05-09T09:05:24.030Z,1020.45
2024-05-09T09:06:23.895Z,1020.46
2024-05-09T09:07:23.936Z,1020.43
2024-05-09T09:08:23.889Z,1020.44
2024-05-09T09:09:23.874Z,1020.43
2024-05-09T09:10:29.876Z,1020.43
2024-05-09T09:11:23.892Z,1020.44
2024-05-09T09:12:23.865Z,1020.40
2024-05-09T09:13:23.853Z,1020.37
2024-05-09T09:14:23.810Z,1020.32
2024-05-09T09:15:23.885Z,1020.33
2024-05-09T09:16:23.872Z,1020.38
2024-05-09T09:17:23.852Z,1020.35
2024-05-09T09:18:23.871Z,1020.37
2024-05-09T09:19:24.034Z,1020.36
2024-05-09T09:20:29.517Z,1020.35
2024-05-09T09:21:23.766Z,1020.33
2024-05-09T09:22:23.779Z,1020.36
2024-05-09T09:23:23.740Z,1020.32
2024-05-09T09:24:23.707Z,1020.37
2024-05-09T09:25:25.377Z,1020.34
2024-05-09T09:26:23.727Z,1020.37
2024-05-09T09:27:23.678Z,1020.29
2024-05-09T09:28:23.690Z,1020.28
2024-05-09T09:29:23.647Z,1020.31
2024-05-09T09:30:34.605Z,1020.28
2024-05-09T09:31:23.684Z,1020.29
2024-05-09T09:32:23.671Z,1020.31
2024-05-09T09:33:23.685Z,1020.28
2024-05-09T09:34:23.724Z,1020.28
2024-05-09T09:35:23.649Z,1020.25
2024-05-09T09:36:23.593Z,1020.30
2024-05-09T09:37:23.572Z,1020.33
2024-05-09T09:38:23.555Z,1020.30
2024-05-09T09:39:23.572Z,1020.28
2024-05-09T09:40:31.030Z,1020.29
2024-05-09T09:41:23.527Z,1020.29
2024-05-09T09:42:23.529Z,1020.30
2024-05-09T09:43:23.547Z,1020.31
2024-05-09T09:44:23.486Z,1020.31
2024-05-09T09:45:23.477Z,1020.31
2024-05-09T09:46:23.617Z,1020.30
2024-05-09T09:47:23.510Z,1020.29
2024-05-09T09:48:23.781Z,1020.30
2024-05-09T09:49:23.455Z,1020.28
2024-05-09T09:50:31.339Z,1020.29
2024-05-09T09:51:23.403Z,1020.25
2024-05-09T09:52:23.434Z,1020.22
2024-05-09T09:53:23.431Z,1020.19
2024-05-09T09:54:23.385Z,1020.19
2024-05-09T09:55:23.516Z,1020.21
2024-05-09T09:56:23.366Z,1020.21
2024-05-09T09:57:23.346Z,1020.25
2024-05-09T09:58:23.474Z,1020.20
2024-05-09T09:59:23.363Z,1020.21
2024-05-09T10:00:30.161Z,1020.21
2024-05-09T10:01:23.361Z,1020.20
2024-05-09T10:02:23.422Z,1020.20
2024-05-09T10:03:23.356Z,1020.17
2024-05-09T10:04:23.382Z,1020.15
2024-05-09T10:05:23.459Z,1020.15
2024-05-09T10:06:23.237Z,1020.15
2024-05-09T10:07:23.293Z,1020.14
2024-05-09T10:08:23.232Z,1020.15
2024-05-09T10:09:23.259Z,1020.14
2024-05-09T10:10:30.427Z,1020.17
2024-05-09T10:11:23.226Z,1020.19
2024-05-09T10:12:23.209Z,1020.17
2024-05-09T10:13:23.260Z,1020.21
2024-05-09T10:14:23.163Z,1020.25
2024-05-09T10:15:23.151Z,1020.30
2024-05-09T10:16:23.351Z,1020.28
2024-05-09T10:17:23.155Z,1020.28
2024-05-09T10:18:23.434Z,1020.28
2024-05-09T10:19:23.174Z,1020.28
2024-05-09T10:20:27.968Z,1020.27
2024-05-09T10:21:23.215Z,1020.27
2024-05-09T10:22:23.147Z,1020.25
2024-05-09T10:23:23.081Z,1020.27
2024-05-09T10:24:23.047Z,1020.23
2024-05-09T10:25:23.264Z,1020.20
2024-05-09T10:26:23.061Z,1020.21
2024-05-09T10:27:23.023Z,1020.20
2024-05-09T10:28:23.037Z,1020.19
2024-05-09T10:29:23.140Z,1020.19
2024-05-09T10:30:29.790Z,1020.16
2024-05-09T10:31:23.000Z,1020.17
2024-05-09T10:32:23.175Z,1020.16
2024-05-09T10:33:23.208Z,1020.14
2024-05-09T10:34:23.380Z,1020.14
2024-05-09T10:35:23.852Z,1020.14
2024-05-09T10:36:22.935Z,1020.11
2024-05-09T10:37:23.138Z,1020.07
2024-05-09T10:38:22.944Z,1020.08
2024-05-09T10:39:22.938Z,1020.09
2024-05-09T10:40:28.771Z,1020.11
2024-05-09T10:41:22.978Z,1020.09
2024-05-09T10:42:22.940Z,1020.09
2024-05-09T10:43:23.043Z,1020.06
2024-05-09T10:44:22.839Z,1020.04
2024-05-09T10:45:22.829Z,1019.99
2024-05-09T10:46:22.939Z,1019.98
2024-05-09T10:47:23.473Z,1019.99
2024-05-09T10:48:22.910Z,1019.98
2024-05-09T10:49:22.941Z,1019.99
2024-05-09T10:50:28.499Z,1019.93
2024-05-09T10:51:22.763Z,1019.92
2024-05-09T10:52:22.808Z,1019.91
2024-05-09T10:53:22.717Z,1019.89
2024-05-09T10:54:23.410Z,1019.86
2024-05-09T10:55:22.888Z,1019.83
2024-05-09T10:56:22.694Z,1019.82
2024-05-09T10:57:22.694Z,1019.82
2024-05-09T10:58:22.703Z,1019.81
2024-05-09T10:59:22.657Z,1019.82
2024-05-09T11:00:27.844Z,1019.84
2024-05-09T11:01:22.806Z,1019.87
2024-05-09T11:02:22.900Z,1019.88
2024-05-09T11:03:22.650Z,1019.81
2024-05-09T11:04:22.760Z,1019.84
2024-05-09T11:05:23.594Z,1019.84
2024-05-09T11:06:22.631Z,1019.81
2024-05-09T11:07:22.808Z,1019.78
2024-05-09T11:08:22.568Z,1019.76
2024-05-09T11:09:22.560Z,1019.72
2024-05-09T11:10:27.825Z,1019.71
2024-05-09T11:11:22.599Z,1019.66
2024-05-09T11:12:24.715Z,1019.74
2024-05-09T11:13:22.585Z,1019.68
2024-05-09T11:14:22.506Z,1019.71
2024-05-09T11:15:23.368Z,1019.65
2024-05-09T11:16:22.695Z,1019.64
2024-05-09T11:17:22.572Z,1019.67
2024-05-09T11:18:25.352Z,1019.66
2024-05-09T11:19:22.561Z,1019.65
2024-05-09T11:20:29.131Z,1019.69
2024-05-09T11:21:22.423Z,1019.68
2024-05-09T11:22:22.420Z,1019.67
2024-05-09T11:23:22.409Z,1019.68
2024-05-09T11:24:22.392Z,1019.70
2024-05-09T11:25:22.429Z,1019.67
2024-05-09T11:26:22.518Z,1019.68
2024-05-09T11:27:22.351Z,1019.62
2024-05-09T11:28:22.958Z,1019.65
2024-05-09T11:29:22.333Z,1019.62
2024-05-09T11:30:29.743Z,1019.62
2024-05-09T11:31:22.570Z,1019.64
2024-05-09T11:32:22.429Z,1019.58
2024-05-09T11:33:22.299Z,1019.62
2024-05-09T11:34:22.353Z,1019.59
2024-05-09T11:35:22.267Z,1019.60
2024-05-09T11:36:22.279Z,1019.56
2024-05-09T11:37:22.284Z,1019.60
2024-05-09T11:38:22.243Z,1019.55
2024-05-09T11:39:22.243Z,1019.57
2024-05-09T11:40:25.739Z,1019.55
2024-05-09T11:41:22.208Z,1019.54
2024-05-09T11:42:22.211Z,1019.51
2024-05-09T11:43:22.292Z,1019.54
2024-05-09T11:44:22.935Z,1019.51
2024-05-09T11:45:22.221Z,1019.53
2024-05-09T11:46:22.183Z,1019.52
2024-05-09T11:47:22.243Z,1019.51
2024-05-09T11:48:22.329Z,1019.50
2024-05-09T11:49:25.358Z,1019.49
2024-05-09T11:50:27.389Z,1019.51
2024-05-09T11:51:22.118Z,1019.50
2024-05-09T11:52:22.149Z,1019.49
2024-05-09T11:53:22.098Z,1019.44
2024-05-09T11:54:22.134Z,1019.43
2024-05-09T11:55:27.207Z,1019.45
2024-05-09T11:56:22.070Z,1019.41
2024-05-09T11:57:22.029Z,1019.41
2024-05-09T11:58:22.071Z,1019.44
2024-05-09T11:59:22.015Z,1019.44
2024-05-09T12:00:29.598Z,1019.45
2024-05-09T12:01:23.134Z,1019.45
2024-05-09T12:02:23.065Z,1019.46
2024-05-09T12:03:22.016Z,1019.41
2024-05-09T12:04:23.074Z,1019.40
2024-05-09T12:05:22.048Z,1019.39
2024-05-09T12:06:21.957Z,1019.41
2024-05-09T12:07:21.941Z,1019.38
2024-05-09T12:08:21.922Z,1019.40
2024-05-09T12:09:21.907Z,1019.39